Time;durP1;ratioP1;P1;durP2;ratioP2;P2;SDS_P1;SDS_P2;PMS_P1;PMS_P2;Temp;Humidity;BMP_temperature;BMP_pressure;BME280_temperature;BME280_humidity;BME280_pressure;Samples;Min_cycle;Max_cycle;Signal;HPM_P1;HPM_P2
2021/04/09 00:01:26;;;;;;;6.60;4.43;;;;;;;;;;5095159;28;20024;-76
2021/04/09 00:03:52;;;;;;;7.03;4.70;;;;;;;;;;5094181;28;20519;-76
2021/04/09 00:06:18;;;;;;;10.93;4.35;;;;;;;;;;5094063;28;20199;-76
2021/04/09 00:08:44;;;;;;;8.23;5.20;;;;;;;;;;5094981;28;20494;-75
2021/04/09 00:11:10;;;;;;;7.97;4.68;;;;;;;;;;5093884;28;20059;-76
2021/04/09 00:13:35;;;;;;;8.00;4.85;;;;;;;;;;5095205;28;20036;-76
2021/04/09 00:16:01;;;;;;;6.90;4.28;;;;;;;;;;5085612;28;20038;-75
2021/04/09 00:18:26;;;;;;;9.40;4.22;;;;;;;;;;5056789;28;20552;-76
2021/04/09 00:20:51;;;;;;;8.20;4.65;;;;;;;;;;5073589;28;20032;-75
2021/04/09 00:23:17;;;;;;;12.50;6.13;;;;;;;;;;5074924;28;20040;-75
2021/04/09 00:25:42;;;;;;;7.43;4.97;;;;;;;;;;5073264;28;20174;-76
2021/04/09 00:28:08;;;;;;;11.32;5.35;;;;;;;;;;5074404;28;20082;-76
2021/04/09 00:30:33;;;;;;;8.68;5.10;;;;;;;;;;5073917;28;20083;-75
2021/04/09 00:32:58;;;;;;;8.50;4.32;;;;;;;;;;5074529;28;20032;-76
2021/04/09 00:35:24;;;;;;;8.27;5.15;;;;;;;;;;5074472;28;20037;-75
2021/04/09 00:37:53;;;;;;;15.23;5.25;;;;;;;;;;5074351;28;20037;-76
2021/04/09 00:40:19;;;;;;;9.18;5.68;;;;;;;;;;5073680;28;20074;-75
2021/04/09 00:42:44;;;;;;;8.20;5.18;;;;;;;;;;5072834;28;20044;-75
2021/04/09 00:45:10;;;;;;;8.23;5.40;;;;;;;;;;5073113;28;20123;-77
2021/04/09 00:47:36;;;;;;;10.93;5.97;;;;;;;;;;5074034;28;20466;-75
2021/04/09 00:50:03;;;;;;;11.20;5.35;;;;;;;;;;5073893;28;20035;-76
2021/04/09 00:52:33;;;;;;;9.10;4.63;;;;;;;;;;5072908;28;20124;-75
2021/04/09 00:55:00;;;;;;;6.78;4.35;;;;;;;;;;5073533;28;20094;-77
2021/04/09 00:57:26;;;;;;;10.65;6.63;;;;;;;;;;5073878;28;20074;-76
2021/04/09 00:59:52;;;;;;;7.13;5.28;;;;;;;;;;5073563;28;20020;-76
2021/04/09 01:02:17;;;;;;;9.50;4.88;;;;;;;;;;5073850;28;20047;-76
2021/04/09 01:04:43;;;;;;;15.45;5.65;;;;;;;;;;5073499;28;20535;-76
2021/04/09 01:07:08;;;;;;;9.82;5.18;;;;;;;;;;5073655;28;20097;-76
2021/04/09 01:09:35;;;;;;;8.77;5.55;;;;;;;;;;5073921;28;20040;-76
2021/04/09 01:12:01;;;;;;;12.93;5.47;;;;;;;;;;5073687;28;20041;-76
2021/04/09 01:14:26;;;;;;;9.55;5.80;;;;;;;;;;5073547;28;20538;-76
2021/04/09 01:17:10;;;;;;;8.88;5.47;;;;;;;;;;5072502;28;20103;-76
2021/04/09 01:19:47;;;;;;;12.73;5.45;;;;;;;;;;5073582;28;20040;-76
2021/04/09 01:22:13;;;;;;;6.57;4.78;;;;;;;;;;5073403;28;20036;-76
2021/04/09 01:25:12;;;;;;;9.82;5.63;;;;;;;;;;5072012;28;20104;-76
2021/04/09 01:28:11;;;;;;;9.00;5.00;;;;;;;;;;5072487;28;20028;-76
2021/04/09 01:30:59;;;;;;;6.35;5.03;;;;;;;;;;5073369;28;20118;-76
2021/04/09 01:33:31;;;;;;;13.25;5.32;;;;;;;;;;5073189;28;20040;-76
2021/04/09 01:36:01;;;;;;;7.13;4.75;;;;;;;;;;5073279;28;20059;-76
2021/04/09 01:38:30;;;;;;;8.85;4.30;;;;;;;;;;5073098;28;20089;-75
2021/04/09 01:40:56;;;;;;;11.20;5.65;;;;;;;;;;5092192;28;20028;-76
2021/04/09 01:43:22;;;;;;;11.30;5.10;;;;;;;;;;5092323;28;20032;-76
2021/04/09 01:45:50;;;;;;;9.60;5.60;;;;;;;;;;5093597;28;20062;-76
2021/04/09 01:48:16;;;;;;;14.55;6.50;;;;;;;;;;5087520;28;20028;-75
2021/04/09 01:50:44;;;;;;;9.60;5.25;;;;;;;;;;5073205;28;20037;-75
2021/04/09 01:53:11;;;;;;;8.30;4.82;;;;;;;;;;5071966;28;20068;-76
2021/04/09 01:55:41;;;;;;;9.07;5.57;;;;;;;;;;5071802;28;20029;-76
2021/04/09 01:58:09;;;;;;;14.48;5.07;;;;;;;;;;5072920;28;20032;-77
2021/04/09 02:00:35;;;;;;;9.27;5.75;;;;;;;;;;5073259;28;20077;-76
2021/04/09 02:03:01;;;;;;;10.90;5.85;;;;;;;;;;5073207;28;20029;-76
2021/04/09 02:05:28;;;;;;;12.07;5.53;;;;;;;;;;5072864;28;20548;-75
2021/04/09 02:07:58;;;;;;;13.32;6.35;;;;;;;;;;5111948;28;20440;-77
2021/04/09 02:10:25;;;;;;;10.13;5.60;;;;;;;;;;5112981;28;20131;-77
2021/04/09 02:12:52;;;;;;;12.52;5.88;;;;;;;;;;5113220;28;20036;-77
2021/04/09 02:15:20;;;;;;;12.13;6.75;;;;;;;;;;5113186;28;20032;-76
2021/04/09 02:17:45;;;;;;;10.35;5.75;;;;;;;;;;5113124;28;20034;-76
2021/04/09 02:20:13;;;;;;;10.75;5.68;;;;;;;;;;5113539;28;20111;-76
2021/04/09 02:22:39;;;;;;;13.25;6.28;;;;;;;;;;5113553;28;20038;-76
2021/04/09 02:25:05;;;;;;;10.48;5.85;;;;;;;;;;5112134;28;20035;-76
2021/04/09 02:27:31;;;;;;;13.65;5.72;;;;;;;;;;5095232;28;20036;-77
2021/04/09 02:29:56;;;;;;;7.32;4.85;;;;;;;;;;5072795;28;20041;-76
2021/04/09 02:32:23;;;;;;;8.23;5.28;;;;;;;;;;5072942;28;20090;-76
2021/04/09 02:34:50;;;;;;;14.15;5.32;;;;;;;;;;5072724;28;20032;-76
2021/04/09 02:37:18;;;;;;;7.55;4.97;;;;;;;;;;5072983;28;20433;-76
2021/04/09 02:39:45;;;;;;;10.95;5.68;;;;;;;;;;5086185;28;20036;-76
2021/04/09 02:42:11;;;;;;;7.28;5.22;;;;;;;;;;5096516;28;20367;-77
2021/04/09 02:44:37;;;;;;;14.20;5.97;;;;;;;;;;5097003;28;20043;-77
2021/04/09 02:47:11;;;;;;;7.78;5.45;;;;;;;;;;5095421;28;20055;-75
2021/04/09 02:49:45;;;;;;;11.23;5.40;;;;;;;;;;5095644;28;20036;-75
2021/04/09 02:52:23;;;;;;;9.38;5.45;;;;;;;;;;5096874;28;20084;-75
2021/04/09 02:54:50;;;;;;;12.35;5.85;;;;;;;;;;5096066;28;20181;-75
2021/04/09 02:57:18;;;;;;;13.65;6.60;;;;;;;;;;5096610;28;20481;-75
2021/04/09 02:59:44;;;;;;;11.63;6.55;;;;;;;;;;5095272;28;20134;-75
2021/04/09 03:02:12;;;;;;;8.77;5.57;;;;;;;;;;5096412;28;20031;-75
2021/04/09 03:04:39;;;;;;;9.38;6.07;;;;;;;;;;5096381;28;20115;-75
2021/04/09 03:07:05;;;;;;;9.70;5.93;;;;;;;;;;5096464;28;20402;-75
2021/04/09 03:09:30;;;;;;;13.07;7.43;;;;;;;;;;5096077;28;20036;-75
2021/04/09 03:11:56;;;;;;;15.15;6.90;;;;;;;;;;5094379;28;20374;-75
2021/04/09 03:14:21;;;;;;;8.48;5.90;;;;;;;;;;5096617;28;20040;-75
2021/04/09 03:16:52;;;;;;;12.10;6.05;;;;;;;;;;5095415;28;20038;-75
2021/04/09 03:19:18;;;;;;;12.23;6.28;;;;;;;;;;5095165;28;20028;-74
2021/04/09 03:21:43;;;;;;;9.90;5.55;;;;;;;;;;5094849;28;20398;-75
2021/04/09 03:24:09;;;;;;;9.77;6.75;;;;;;;;;;5095979;28;20147;-75
2021/04/09 03:26:35;;;;;;;9.57;5.18;;;;;;;;;;5094766;28;20032;-75
2021/04/09 03:29:00;;;;;;;9.30;6.13;;;;;;;;;;5095641;28;20081;-75
2021/04/09 03:31:26;;;;;;;10.20;6.75;;;;;;;;;;5094984;28;20428;-75
2021/04/09 03:33:52;;;;;;;12.43;6.43;;;;;;;;;;5096206;28;20070;-74
2021/04/09 03:36:18;;;;;;;9.30;5.60;;;;;;;;;;5095880;28;20028;-74
2021/04/09 03:38:44;;;;;;;11.18;6.00;;;;;;;;;;5094946;28;20036;-75
2021/04/09 03:41:09;;;;;;;9.85;6.10;;;;;;;;;;5095064;28;20116;-75
2021/04/09 03:43:35;;;;;;;10.63;6.28;;;;;;;;;;5096275;28;20071;-75
2021/04/09 03:46:00;;;;;;;10.90;6.07;;;;;;;;;;5095726;28;20103;-75
2021/04/09 03:48:25;;;;;;;10.35;6.35;;;;;;;;;;5094632;28;20031;-74
2021/04/09 03:50:51;;;;;;;9.63;5.93;;;;;;;;;;5095021;28;20040;-74
2021/04/09 03:53:16;;;;;;;12.50;5.65;;;;;;;;;;5095853;28;20036;-75
2021/04/09 03:55:42;;;;;;;10.85;6.20;;;;;;;;;;5096297;28;20097;-75
2021/04/09 03:58:07;;;;;;;9.48;6.38;;;;;;;;;;5095072;28;20078;-75
2021/04/09 04:00:33;;;;;;;10.52;6.57;;;;;;;;;;5096237;28;20039;-75
2021/04/09 04:02:58;;;;;;;13.07;6.72;;;;;;;;;;5096087;28;20032;-74
2021/04/09 04:05:24;;;;;;;12.43;6.30;;;;;;;;;;5095558;28;20051;-74
2021/04/09 04:07:50;;;;;;;18.58;6.90;;;;;;;;;;5096045;28;20057;-75
2021/04/09 04:10:16;;;;;;;10.52;5.93;;;;;;;;;;5095163;28;20374;-75
2021/04/09 04:12:41;;;;;;;9.05;6.03;;;;;;;;;;5078043;28;20128;-74
2021/04/09 04:15:07;;;;;;;10.98;6.38;;;;;;;;;;5095989;28;20060;-75
2021/04/09 04:17:33;;;;;;;10.85;6.40;;;;;;;;;;5094741;28;20039;-75
2021/04/09 04:19:59;;;;;;;13.20;6.20;;;;;;;;;;5094318;28;20032;-75
2021/04/09 04:22:25;;;;;;;11.48;7.90;;;;;;;;;;5095019;28;20069;-75
2021/04/09 04:24:50;;;;;;;13.93;6.88;;;;;;;;;;5095007;28;20035;-75
2021/04/09 04:27:16;;;;;;;10.50;5.78;;;;;;;;;;5095136;28;20085;-75
2021/04/09 04:29:41;;;;;;;11.90;6.00;;;;;;;;;;5095649;28;20044;-75
2021/04/09 04:32:07;;;;;;;8.80;6.07;;;;;;;;;;5096187;28;20048;-75
2021/04/09 04:34:33;;;;;;;11.43;6.40;;;;;;;;;;5095959;28;20032;-74
2021/04/09 04:36:58;;;;;;;13.77;6.50;;;;;;;;;;5096282;28;20054;-75
2021/04/09 04:39:24;;;;;;;10.90;5.82;;;;;;;;;;5076181;28;20565;-76
2021/04/09 04:41:49;;;;;;;9.32;5.97;;;;;;;;;;5073931;28;20024;-75
2021/04/09 04:44:15;;;;;;;12.48;6.93;;;;;;;;;;5074564;28;20394;-75
2021/04/09 04:46:40;;;;;;;12.40;7.22;;;;;;;;;;5056657;28;20115;-74
2021/04/09 04:49:06;;;;;;;11.98;7.50;;;;;;;;;;5056184;28;20056;-75
2021/04/09 04:51:32;;;;;;;12.70;7.53;;;;;;;;;;5075157;28;20490;-75
2021/04/09 04:53:57;;;;;;;13.63;7.75;;;;;;;;;;5075133;28;20383;-77
2021/04/09 04:56:23;;;;;;;12.77;6.93;;;;;;;;;;5073760;28;20170;-74
2021/04/09 04:58:48;;;;;;;16.98;7.70;;;;;;;;;;5084432;28;20043;-77
2021/04/09 05:01:14;;;;;;;11.50;7.10;;;;;;;;;;5095346;28;20062;-75
2021/04/09 05:03:39;;;;;;;11.90;6.70;;;;;;;;;;5095566;28;20038;-75
2021/04/09 05:06:05;;;;;;;11.07;6.68;;;;;;;;;;5095242;28;20543;-75
2021/04/09 05:08:30;;;;;;;13.52;7.90;;;;;;;;;;5097448;28;20379;-75
2021/04/09 05:10:56;;;;;;;12.80;7.13;;;;;;;;;;5095359;28;20473;-76
2021/04/09 05:13:22;;;;;;;13.02;7.20;;;;;;;;;;5095108;28;20098;-77
2021/04/09 05:15:47;;;;;;;11.80;6.93;;;;;;;;;;5094250;28;20040;-75
2021/04/09 05:18:13;;;;;;;11.85;6.75;;;;;;;;;;5095418;28;20028;-76
2021/04/09 05:20:38;;;;;;;10.65;7.35;;;;;;;;;;5095409;28;20073;-76
2021/04/09 05:23:04;;;;;;;9.23;6.25;;;;;;;;;;5093069;28;20039;-75
2021/04/09 05:25:29;;;;;;;13.27;7.05;;;;;;;;;;5093939;28;20455;-75
2021/04/09 05:27:55;;;;;;;12.05;7.18;;;;;;;;;;5093051;28;20032;-77
2021/04/09 05:30:21;;;;;;;12.30;6.82;;;;;;;;;;5094404;28;20486;-76
2021/04/09 05:32:48;;;;;;;9.80;6.78;;;;;;;;;;5094051;28;20157;-76
2021/04/09 05:35:16;;;;;;;14.02;7.18;;;;;;;;;;5094282;28;20423;-76
2021/04/09 05:37:42;;;;;;;10.60;7.03;;;;;;;;;;5092366;28;20173;-75
2021/04/09 05:40:08;;;;;;;11.07;7.85;;;;;;;;;;5092252;28;20448;-75
2021/04/09 05:42:33;;;;;;;11.63;7.45;;;;;;;;;;5092926;28;20129;-77
2021/04/09 05:44:59;;;;;;;10.52;6.70;;;;;;;;;;5095451;28;20040;-75
2021/04/09 05:47:26;;;;;;;11.07;6.70;;;;;;;;;;5093955;28;20043;-76
2021/04/09 05:49:51;;;;;;;13.57;6.88;;;;;;;;;;5092887;28;20489;-75
2021/04/09 05:52:17;;;;;;;18.10;6.97;;;;;;;;;;5093398;28;20063;-76
2021/04/09 05:54:43;;;;;;;13.90;6.95;;;;;;;;;;5093765;28;20035;-74
2021/04/09 05:57:09;;;;;;;16.70;7.05;;;;;;;;;;5093743;28;20389;-74
2021/04/09 05:59:34;;;;;;;10.18;6.93;;;;;;;;;;5095931;28;20040;-77
2021/04/09 06:02:00;;;;;;;13.23;7.47;;;;;;;;;;5095326;28;20107;-75
2021/04/09 06:04:26;;;;;;;13.43;7.85;;;;;;;;;;5095181;28;20139;-75
2021/04/09 06:06:51;;;;;;;13.00;8.55;;;;;;;;;;5092988;28;20103;-75
2021/04/09 06:09:17;;;;;;;12.63;7.47;;;;;;;;;;5092406;28;20044;-75
2021/04/09 06:11:43;;;;;;;12.30;8.27;;;;;;;;;;5092145;28;20074;-78
2021/04/09 06:14:08;;;;;;;14.77;8.00;;;;;;;;;;5097944;28;20390;-75
2021/04/09 06:16:33;;;;;;;13.25;7.75;;;;;;;;;;5096111;28;20039;-75
2021/04/09 06:19:01;;;;;;;15.80;7.82;;;;;;;;;;5097435;28;20043;-75
2021/04/09 06:21:26;;;;;;;16.85;9.10;;;;;;;;;;5097880;28;20028;-78
2021/04/09 06:23:52;;;;;;;12.55;8.60;;;;;;;;;;5099537;28;20088;-77
2021/04/09 06:26:17;;;;;;;14.32;7.35;;;;;;;;;;5101774;28;20043;-77
2021/04/09 06:28:42;;;;;;;11.35;6.55;;;;;;;;;;5099221;28;20047;-77
2021/04/09 06:31:08;;;;;;;9.73;6.88;;;;;;;;;;5098047;28;20032;-76
2021/04/09 06:33:34;;;;;;;11.23;7.60;;;;;;;;;;5105673;28;20040;-80
2021/04/09 06:35:59;;;;;;;14.95;7.82;;;;;;;;;;5098331;28;20043;-76
2021/04/09 06:38:25;;;;;;;12.75;7.10;;;;;;;;;;5100892;28;20032;-75
2021/04/09 06:40:50;;;;;;;11.93;6.25;;;;;;;;;;5099928;28;20032;-77
2021/04/09 06:43:16;;;;;;;12.80;7.05;;;;;;;;;;5092608;28;20062;-77
2021/04/09 06:45:42;;;;;;;15.20;7.93;;;;;;;;;;5086339;28;20036;-77
2021/04/09 06:48:09;;;;;;;10.07;7.43;;;;;;;;;;5076422;28;20036;-77
2021/04/09 06:50:34;;;;;;;13.32;7.47;;;;;;;;;;5075864;28;20078;-77
2021/04/09 06:53:00;;;;;;;13.43;7.75;;;;;;;;;;5080732;28;20040;-77
2021/04/09 06:55:26;;;;;;;12.07;7.38;;;;;;;;;;5078038;28;20032;-77
2021/04/09 06:57:53;;;;;;;16.65;8.55;;;;;;;;;;5077275;28;20123;-76
2021/04/09 07:00:21;;;;;;;14.40;7.15;;;;;;;;;;5075437;28;20036;-78
2021/04/09 07:02:47;;;;;;;13.88;6.82;;;;;;;;;;5077407;28;20032;-77
2021/04/09 07:05:13;;;;;;;14.38;6.93;;;;;;;;;;5076467;28;20043;-79
2021/04/09 07:07:39;;;;;;;10.88;7.22;;;;;;;;;;5076020;28;20070;-76
2021/04/09 07:10:06;;;;;;;11.77;6.68;;;;;;;;;;5075020;28;20123;-78
2021/04/09 07:12:33;;;;;;;13.00;5.93;;;;;;;;;;5076735;28;20033;-78
2021/04/09 07:15:05;;;;;;;12.38;7.30;;;;;;;;;;5077664;28;20119;-76
2021/04/09 07:17:34;;;;;;;13.43;5.90;;;;;;;;;;5076384;28;20079;-77
2021/04/09 07:20:16;;;;;;;10.88;5.57;;;;;;;;;;5075454;28;20040;-77
2021/04/09 07:22:43;;;;;;;10.10;6.93;;;;;;;;;;5075768;28;20032;-77
2021/04/09 07:25:12;;;;;;;8.75;5.00;;;;;;;;;;5075790;28;20067;-77
2021/04/09 07:27:39;;;;;;;9.63;6.05;;;;;;;;;;5075636;28;20056;-76
2021/04/09 07:30:07;;;;;;;10.63;5.75;;;;;;;;;;5075615;28;20073;-74
2021/04/09 07:32:34;;;;;;;8.88;5.30;;;;;;;;;;5077625;28;20036;-78
2021/04/09 07:35:04;;;;;;;13.55;5.75;;;;;;;;;;5078998;28;20120;-78
2021/04/09 07:37:33;;;;;;;11.85;4.95;;;;;;;;;;5077221;28;20127;-77
2021/04/09 07:40:01;;;;;;;12.68;5.60;;;;;;;;;;5094929;28;20062;-77
2021/04/09 07:42:37;;;;;;;14.70;6.05;;;;;;;;;;5098406;28;20405;-77
2021/04/09 07:45:11;;;;;;;13.68;6.93;;;;;;;;;;5098109;28;20455;-78
2021/04/09 07:47:37;;;;;;;16.38;9.30;;;;;;;;;;5099144;28;20039;-77
2021/04/09 07:50:08;;;;;;;26.90;10.73;;;;;;;;;;5098205;28;20032;-78
2021/04/09 07:52:49;;;;;;;11.65;6.53;;;;;;;;;;5099352;28;20583;-77
2021/04/09 07:55:17;;;;;;;9.00;5.40;;;;;;;;;;5095933;28;20068;-78
2021/04/09 07:57:43;;;;;;;9.95;5.57;;;;;;;;;;5097070;28;20027;-78
2021/04/09 08:00:24;;;;;;;12.48;6.10;;;;;;;;;;5100584;28;20028;-78
2021/04/09 08:02:52;;;;;;;10.70;5.50;;;;;;;;;;5096797;28;20075;-77
2021/04/09 08:05:21;;;;;;;9.05;4.70;;;;;;;;;;5095773;28;20515;-78
2021/04/09 08:07:47;;;;;;;11.30;5.38;;;;;;;;;;5097113;28;20385;-80
2021/04/09 08:10:14;;;;;;;12.02;5.47;;;;;;;;;;5096595;28;20031;-78
2021/04/09 08:12:42;;;;;;;9.77;5.63;;;;;;;;;;5075416;28;20028;-77
2021/04/09 08:15:33;;;;;;;13.50;5.35;;;;;;;;;;5074969;28;20036;-78
2021/04/09 08:18:09;;;;;;;9.85;5.00;;;;;;;;;;5080893;28;20055;-77
2021/04/09 08:20:42;;;;;;;8.93;5.32;;;;;;;;;;5094834;28;20435;-77
2021/04/09 08:23:15;;;;;;;9.20;4.78;;;;;;;;;;5095008;28;20071;-77
2021/04/09 08:25:43;;;;;;;13.07;5.85;;;;;;;;;;5094700;28;20043;-76
2021/04/09 08:28:10;;;;;;;9.23;4.28;;;;;;;;;;5094878;28;20064;-77
2021/04/09 08:30:36;;;;;;;10.43;4.53;;;;;;;;;;5094545;28;20119;-78
2021/04/09 08:33:04;;;;;;;8.32;4.50;;;;;;;;;;5091987;28;20569;-78
2021/04/09 08:35:30;;;;;;;7.65;4.10;;;;;;;;;;5092615;28;20032;-77
2021/04/09 08:38:02;;;;;;;7.35;4.32;;;;;;;;;;5093454;28;20474;-77
2021/04/09 08:40:27;;;;;;;10.30;4.90;;;;;;;;;;5094734;28;20497;-77
2021/04/09 08:42:53;;;;;;;8.82;4.53;;;;;;;;;;5076334;28;20028;-77
2021/04/09 08:45:19;;;;;;;9.40;4.53;;;;;;;;;;5094495;28;20430;-78
2021/04/09 08:47:47;;;;;;;5.13;3.50;;;;;;;;;;5094386;28;20040;-77
2021/04/09 08:50:15;;;;;;;7.68;4.20;;;;;;;;;;5094615;28;20032;-77
2021/04/09 08:52:43;;;;;;;6.82;3.80;;;;;;;;;;5094455;28;20043;-77
2021/04/09 08:55:13;;;;;;;7.80;3.90;;;;;;;;;;5095881;28;20040;-78
2021/04/09 08:57:42;;;;;;;8.82;4.72;;;;;;;;;;5095978;28;20047;-79
2021/04/09 09:00:09;;;;;;;10.95;5.13;;;;;;;;;;5097992;28;20040;-80
2021/04/09 09:02:51;;;;;;;9.80;4.10;;;;;;;;;;5097570;28;20108;-79
2021/04/09 09:05:31;;;;;;;7.22;4.28;;;;;;;;;;5099096;28;20039;-80
2021/04/09 09:08:01;;;;;;;8.38;4.15;;;;;;;;;;5098776;28;20040;-79
2021/04/09 09:10:30;;;;;;;12.75;4.70;;;;;;;;;;5098376;28;20036;-80
2021/04/09 09:15:45;;;;;;;8.23;4.32;;;;;;;;;;5096971;28;20120;-78
2021/04/09 09:18:23;;;;;;;11.85;5.07;;;;;;;;;;5095459;28;20051;-79
2021/04/09 09:21:10;;;;;;;7.95;4.57;;;;;;;;;;5101461;28;20024;-84
2021/04/09 09:23:59;;;;;;;12.25;4.78;;;;;;;;;;5100551;28;20065;-79
2021/04/09 09:26:40;;;;;;;8.05;4.22;;;;;;;;;;5096276;28;20385;-77
2021/04/09 09:29:15;;;;;;;9.73;4.65;;;;;;;;;;5093574;28;20550;-77
2021/04/09 09:32:01;;;;;;;10.63;5.43;;;;;;;;;;5093962;28;20028;-77
2021/04/09 09:34:27;;;;;;;14.48;5.18;;;;;;;;;;5092782;28;20378;-77
2021/04/09 09:37:17;;;;;;;12.07;6.50;;;;;;;;;;5097600;28;20039;-79
2021/04/09 09:39:58;;;;;;;13.80;5.35;;;;;;;;;;5094191;28;20066;-76
2021/04/09 09:42:26;;;;;;;16.17;6.40;;;;;;;;;;5093649;28;20101;-74
2021/04/09 09:44:54;;;;;;;13.38;6.13;;;;;;;;;;5095410;28;20032;-79
2021/04/09 09:47:27;;;;;;;8.00;4.65;;;;;;;;;;5094198;28;20402;-77
2021/04/09 09:50:07;;;;;;;9.50;4.35;;;;;;;;;;5094080;28;20478;-76
2021/04/09 09:52:46;;;;;;;7.85;4.72;;;;;;;;;;5092905;28;20044;-76
2021/04/09 09:55:19;;;;;;;13.55;4.88;;;;;;;;;;5092487;28;20389;-76
2021/04/09 09:58:25;;;;;;;11.50;4.72;;;;;;;;;;5093388;28;20107;-75
2021/04/09 10:00:53;;;;;;;6.60;4.35;;;;;;;;;;5093735;28;20122;-75
2021/04/09 10:03:30;;;;;;;9.18;4.68;;;;;;;;;;5092312;28;20039;-77
2021/04/09 10:06:13;;;;;;;7.55;4.60;;;;;;;;;;5100987;28;20040;-80
2021/04/09 10:08:42;;;;;;;7.88;4.70;;;;;;;;;;5100591;28;20081;-78
2021/04/09 10:11:15;;;;;;;8.70;4.50;;;;;;;;;;5097486;28;20100;-79
2021/04/09 10:13:43;;;;;;;7.20;4.38;;;;;;;;;;5100419;28;20039;-79
2021/04/09 10:16:11;;;;;;;9.27;4.47;;;;;;;;;;5097212;28;20474;-78
2021/04/09 10:18:39;;;;;;;8.23;4.07;;;;;;;;;;5095581;28;20036;-76
2021/04/09 10:21:28;;;;;;;7.88;4.43;;;;;;;;;;5095981;28;20036;-80
2021/04/09 10:24:06;;;;;;;12.20;4.75;;;;;;;;;;5095294;28;20053;-76
2021/04/09 10:26:31;;;;;;;9.35;4.60;;;;;;;;;;5092109;28;20036;-77
2021/04/09 10:28:57;;;;;;;8.05;4.30;;;;;;;;;;5092009;28;20032;-77
2021/04/09 10:31:23;;;;;;;9.45;4.03;;;;;;;;;;5098461;28;20489;-79
2021/04/09 10:33:53;;;;;;;8.43;4.75;;;;;;;;;;5121023;28;20027;-79
2021/04/09 10:36:29;;;;;;;12.95;4.30;;;;;;;;;;5119104;28;20036;-79
2021/04/09 10:38:55;;;;;;;;;;;;;;;;;;5119751;28;20104;-79
2021/04/09 10:41:23;;;;;;;7.30;3.72;;;;;;;;;;5098741;28;19912;-79
2021/04/09 10:44:12;;;;;;;7.72;3.70;;;;;;;;;;5098449;28;20032;-76
2021/04/09 10:46:41;;;;;;;5.63;3.60;;;;;;;;;;5095664;28;20482;-77
2021/04/09 10:49:16;;;;;;;13.30;5.63;;;;;;;;;;5093603;28;20070;-78
2021/04/09 10:51:47;;;;;;;8.97;4.60;;;;;;;;;;5094692;28;20062;-78
2021/04/09 10:54:17;;;;;;;8.70;3.58;;;;;;;;;;5096537;28;20380;-80
2021/04/09 10:56:50;;;;;;;7.47;3.80;;;;;;;;;;5084249;28;20072;-80
2021/04/09 10:59:16;;;;;;;8.27;3.58;;;;;;;;;;5100110;28;20478;-84
2021/04/09 11:01:42;;;;;;;6.80;3.85;;;;;;;;;;5083873;28;20023;-82
2021/04/09 11:04:07;;;;;;;17.95;4.15;;;;;;;;;;5098131;28;20059;-79
2021/04/09 11:06:34;;;;;;;8.25;4.25;;;;;;;;;;5101278;28;20055;-81
2021/04/09 11:09:07;;;;;;;12.05;4.43;;;;;;;;;;5097401;28;20036;-75
2021/04/09 11:11:35;;;;;;;7.25;4.28;;;;;;;;;;5095909;28;20039;-75
2021/04/09 11:14:07;;;;;;;72.85;47.45;;;;;;;;;;5094626;28;20024;-75
2021/04/09 11:16:51;;;;;;;26.95;18.25;;;;;;;;;;5095300;28;20044;-75
2021/04/09 11:19:24;;;;;;;14.30;7.32;;;;;;;;;;5096305;28;20395;-75
2021/04/09 11:21:52;;;;;;;13.38;3.92;;;;;;;;;;5095758;28;20031;-75
2021/04/09 11:24:26;;;;;;;7.10;3.75;;;;;;;;;;5096111;28;20038;-75
2021/04/09 11:26:53;;;;;;;8.35;4.60;;;;;;;;;;5095947;28;20401;-75
2021/04/09 11:29:23;;;;;;;8.40;3.78;;;;;;;;;;5095773;28;20044;-75
2021/04/09 11:31:48;;;;;;;8.88;4.22;;;;;;;;;;5095563;28;20082;-74
2021/04/09 11:34:16;;;;;;;10.02;4.03;;;;;;;;;;5095899;28;20443;-76
2021/04/09 11:36:50;;;;;;;9.68;3.63;;;;;;;;;;5094724;28;20051;-75
2021/04/09 11:39:20;;;;;;;7.88;3.78;;;;;;;;;;5094261;28;20028;-75
2021/04/09 11:41:54;;;;;;;5.40;3.47;;;;;;;;;;5112268;28;20031;-75
2021/04/09 11:44:39;;;;;;;4.88;3.53;;;;;;;;;;5116267;28;20381;-75
2021/04/09 11:47:15;;;;;;;6.80;3.20;;;;;;;;;;5115776;28;20060;-75
2021/04/09 11:49:41;;;;;;;4.68;3.53;;;;;;;;;;5101988;28;20040;-75
2021/04/09 11:52:06;;;;;;;6.47;3.50;;;;;;;;;;5095558;28;20044;-75
2021/04/09 11:54:37;;;;;;;10.40;3.45;;;;;;;;;;5094958;28;20044;-75
2021/04/09 11:57:03;;;;;;;11.18;3.63;;;;;;;;;;5095373;28;20131;-76
2021/04/09 11:59:33;;;;;;;5.15;3.40;;;;;;;;;;5095500;28;20103;-75
2021/04/09 12:02:15;;;;;;;8.75;4.07;;;;;;;;;;5095473;28;20032;-75
2021/04/09 12:04:41;;;;;;;6.22;3.70;;;;;;;;;;5094217;28;20093;-74
2021/04/09 12:07:15;;;;;;;5.85;3.40;;;;;;;;;;5095475;28;20039;-75
2021/04/09 12:09:42;;;;;;;8.82;3.78;;;;;;;;;;5094641;28;20401;-74
2021/04/09 12:12:10;;;;;;;7.47;2.78;;;;;;;;;;5094460;28;20118;-75
2021/04/09 12:14:40;;;;;;;5.05;2.88;;;;;;;;;;5095249;28;20067;-75
2021/04/09 12:17:07;;;;;;;7.80;3.70;;;;;;;;;;5095101;28;20390;-76
2021/04/09 12:19:32;;;;;;;5.05;3.13;;;;;;;;;;5094372;28;20055;-76
2021/04/09 12:21:58;;;;;;;5.45;3.38;;;;;;;;;;5094877;28;20467;-77
2021/04/09 12:24:24;;;;;;;8.73;3.80;;;;;;;;;;5094974;28;20032;-76
2021/04/09 12:26:49;;;;;;;6.45;3.83;;;;;;;;;;5094832;28;20489;-76
2021/04/09 12:29:15;;;;;;;8.43;3.58;;;;;;;;;;5094906;28;20456;-76
2021/04/09 12:31:41;;;;;;;9.07;3.40;;;;;;;;;;5093618;28;20024;-76
2021/04/09 12:34:06;;;;;;;6.40;3.58;;;;;;;;;;5094474;28;20397;-76
2021/04/09 12:36:31;;;;;;;9.35;4.05;;;;;;;;;;5093408;28;20043;-76
2021/04/09 12:38:57;;;;;;;5.60;3.20;;;;;;;;;;5095964;28;20028;-76
2021/04/09 12:41:23;;;;;;;8.93;3.80;;;;;;;;;;5114992;28;20123;-75
2021/04/09 12:43:51;;;;;;;7.43;3.80;;;;;;;;;;5114821;28;20027;-76
2021/04/09 12:46:16;;;;;;;5.72;3.53;;;;;;;;;;5112968;28;20036;-76
2021/04/09 12:48:42;;;;;;;7.97;3.80;;;;;;;;;;5114306;28;20040;-77
2021/04/09 12:51:08;;;;;;;9.45;4.25;;;;;;;;;;5096766;28;20046;-76
2021/04/09 12:53:33;;;;;;;6.75;3.65;;;;;;;;;;5114922;28;20114;-77
2021/04/09 12:55:58;;;;;;;8.40;4.13;;;;;;;;;;5115839;28;20066;-78
2021/04/09 12:58:24;;;;;;;5.60;3.08;;;;;;;;;;5114022;28;20031;-76
2021/04/09 13:00:49;;;;;;;9.13;4.07;;;;;;;;;;5114734;28;20023;-76
2021/04/09 13:03:15;;;;;;;9.45;4.32;;;;;;;;;;5106667;28;20034;-76
2021/04/09 13:05:40;;;;;;;11.95;3.88;;;;;;;;;;5093171;28;20397;-76
2021/04/09 13:08:05;;;;;;;6.10;3.47;;;;;;;;;;5092476;28;20031;-76
2021/04/09 13:10:31;;;;;;;7.07;3.88;;;;;;;;;;5094067;28;20031;-76
2021/04/09 13:12:56;;;;;;;8.07;3.92;;;;;;;;;;5087591;28;20036;-76
2021/04/09 13:15:22;;;;;;;9.60;3.90;;;;;;;;;;5073693;28;20040;-76
2021/04/09 13:17:47;;;;;;;7.03;3.40;;;;;;;;;;5073631;28;20474;-76
2021/04/09 13:20:12;;;;;;;9.95;3.78;;;;;;;;;;5072440;28;20033;-76
2021/04/09 13:22:38;;;;;;;6.10;3.58;;;;;;;;;;5080834;28;20028;-76
2021/04/09 13:25:05;;;;;;;5.35;3.45;;;;;;;;;;5093726;28;20070;-76
2021/04/09 13:27:31;;;;;;;7.72;4.00;;;;;;;;;;5093658;28;20038;-76
2021/04/09 13:29:56;;;;;;;6.93;3.67;;;;;;;;;;5093425;28;20112;-76
2021/04/09 13:32:22;;;;;;;6.05;3.90;;;;;;;;;;5093678;28;20474;-76
2021/04/09 13:34:47;;;;;;;6.32;4.03;;;;;;;;;;5093683;28;20413;-76
2021/04/09 13:37:12;;;;;;;6.63;3.10;;;;;;;;;;5092609;28;20493;-76
2021/04/09 13:39:38;;;;;;;7.03;3.78;;;;;;;;;;5093329;28;20032;-76
2021/04/09 13:42:04;;;;;;;6.43;3.45;;;;;;;;;;5093662;28;20162;-76
2021/04/09 13:44:29;;;;;;;9.43;4.50;;;;;;;;;;5075396;28;20046;-76
2021/04/09 13:46:55;;;;;;;5.90;3.08;;;;;;;;;;5092500;28;20038;-77
2021/04/09 13:49:20;;;;;;;7.47;3.60;;;;;;;;;;5093445;28;20126;-76
2021/04/09 13:51:46;;;;;;;5.88;3.95;;;;;;;;;;5093451;28;20123;-78
2021/04/09 13:54:11;;;;;;;10.50;3.60;;;;;;;;;;5093215;28;20040;-76
2021/04/09 13:56:37;;;;;;;4.10;3.17;;;;;;;;;;5092135;28;20456;-75
2021/04/09 13:59:02;;;;;;;6.25;3.33;;;;;;;;;;5093460;28;20032;-76
2021/04/09 14:01:27;;;;;;;9.40;3.40;;;;;;;;;;5093422;28;20032;-75
2021/04/09 14:03:53;;;;;;;6.13;3.35;;;;;;;;;;5092497;28;20470;-76
2021/04/09 14:06:18;;;;;;;5.05;3.05;;;;;;;;;;5091861;28;20088;-76
2021/04/09 14:08:44;;;;;;;8.18;2.95;;;;;;;;;;5091648;28;20047;-76
2021/04/09 14:11:09;;;;;;;7.18;3.83;;;;;;;;;;5092356;28;20070;-76
2021/04/09 14:13:35;;;;;;;8.98;3.47;;;;;;;;;;5092874;28;20061;-76
2021/04/09 14:16:00;;;;;;;9.57;3.92;;;;;;;;;;5093211;28;20024;-76
2021/04/09 14:18:26;;;;;;;7.00;3.60;;;;;;;;;;5093036;28;20420;-75
2021/04/09 14:20:52;;;;;;;7.60;3.80;;;;;;;;;;5093192;28;20421;-76
2021/04/09 14:23:18;;;;;;;7.18;3.28;;;;;;;;;;5092896;28;20039;-77
2021/04/09 14:25:43;;;;;;;6.43;4.10;;;;;;;;;;5091375;28;20039;-76
2021/04/09 14:28:08;;;;;;;5.32;3.33;;;;;;;;;;5092995;28;20032;-76
2021/04/09 14:30:36;;;;;;;8.60;3.30;;;;;;;;;;5092964;28;20097;-76
2021/04/09 14:33:02;;;;;;;6.15;3.42;;;;;;;;;;5093150;28;20093;-76
2021/04/09 14:35:27;;;;;;;7.60;3.53;;;;;;;;;;5095591;28;20059;-76
2021/04/09 14:37:53;;;;;;;5.45;3.58;;;;;;;;;;5096982;28;20028;-76
2021/04/09 14:40:21;;;;;;;6.30;3.50;;;;;;;;;;5095582;28;20045;-76
2021/04/09 14:42:46;;;;;;;12.18;4.05;;;;;;;;;;5095868;28;20386;-76
2021/04/09 14:45:13;;;;;;;5.72;3.20;;;;;;;;;;5095843;28;20032;-76
2021/04/09 14:47:39;;;;;;;6.32;3.60;;;;;;;;;;5095626;28;20040;-76